sensor_id;sensor_type;location;lat;lon;timestamp;temperature;humidity
27413;DHT22;14871;52.702;5.230;2022-07-30T00:02:04;20.80;95.70
27413;DHT22;14871;52.702;5.230;2022-07-30T00:04:29;20.70;95.80
27413;DHT22;14871;52.702;5.230;2022-07-30T00:06:57;20.70;96.00
27413;DHT22;14871;52.702;5.230;2022-07-30T00:09:22;20.60;96.20
27413;DHT22;14871;52.702;5.230;2022-07-30T00:11:48;20.60;96.20
27413;DHT22;14871;52.702;5.230;2022-07-30T00:14:14;20.50;96.30
27413;DHT22;14871;52.702;5.230;2022-07-30T00:16:40;20.50;96.40
27413;DHT22;14871;52.702;5.230;2022-07-30T00:19:06;20.40;96.70
27413;DHT22;14871;52.702;5.230;2022-07-30T00:21:32;20.30;96.60
27413;DHT22;14871;52.702;5.230;2022-07-30T00:23:57;20.30;96.60
27413;DHT22;14871;52.702;5.230;2022-07-30T00:26:23;20.30;96.60
27413;DHT22;14871;52.702;5.230;2022-07-30T00:28:48;20.30;96.60
27413;DHT22;14871;52.702;5.230;2022-07-30T00:31:14;20.20;96.70
27413;DHT22;14871;52.702;5.230;2022-07-30T00:33:40;20.10;96.80
27413;DHT22;14871;52.702;5.230;2022-07-30T00:36:05;20.00;97.00
27413;DHT22;14871;52.702;5.230;2022-07-30T00:38:31;20.00;96.90
27413;DHT22;14871;52.702;5.230;2022-07-30T00:40:57;19.70;97.40
27413;DHT22;14871;52.702;5.230;2022-07-30T00:43:22;19.80;97.40
27413;DHT22;14871;52.702;5.230;2022-07-30T00:45:48;19.70;97.70
27413;DHT22;14871;52.702;5.230;2022-07-30T00:48:14;19.70;97.80
27413;DHT22;14871;52.702;5.230;2022-07-30T00:50:40;19.80;97.70
27413;DHT22;14871;52.702;5.230;2022-07-30T00:53:07;19.80;97.60
27413;DHT22;14871;52.702;5.230;2022-07-30T00:55:34;19.80;97.60
27413;DHT22;14871;52.702;5.230;2022-07-30T00:58:00;19.80;97.50
27413;DHT22;14871;52.702;5.230;2022-07-30T01:00:25;19.90;97.40
27413;DHT22;14871;52.702;5.230;2022-07-30T01:02:51;19.80;97.40
27413;DHT22;14871;52.702;5.230;2022-07-30T01:05:17;19.90;97.30
27413;DHT22;14871;52.702;5.230;2022-07-30T01:07:43;19.80;97.30
27413;DHT22;14871;52.702;5.230;2022-07-30T01:10:11;19.90;97.30
27413;DHT22;14871;52.702;5.230;2022-07-30T01:12:37;19.90;97.20
27413;DHT22;14871;52.702;5.230;2022-07-30T01:15:05;20.00;97.00
27413;DHT22;14871;52.702;5.230;2022-07-30T01:17:32;20.00;97.30
27413;DHT22;14871;52.702;5.230;2022-07-30T01:20:17;20.10;96.70
27413;DHT22;14871;52.702;5.230;2022-07-30T01:28:06;20.00;96.90
27413;DHT22;14871;52.702;5.230;2022-07-30T01:30:39;20.10;96.80
27413;DHT22;14871;52.702;5.230;2022-07-30T01:33:05;20.10;96.80
27413;DHT22;14871;52.702;5.230;2022-07-30T01:35:33;20.10;96.80
27413;DHT22;14871;52.702;5.230;2022-07-30T01:38:01;20.10;96.80
27413;DHT22;14871;52.702;5.230;2022-07-30T01:40:28;20.00;96.80
27413;DHT22;14871;52.702;5.230;2022-07-30T01:42:56;20.10;96.80
27413;DHT22;14871;52.702;5.230;2022-07-30T01:45:23;20.00;96.80
27413;DHT22;14871;52.702;5.230;2022-07-30T01:47:57;20.00;96.80
27413;DHT22;14871;52.702;5.230;2022-07-30T01:50:24;20.00;96.80
27413;DHT22;14871;52.702;5.230;2022-07-30T01:52:52;20.00;96.70
27413;DHT22;14871;52.702;5.230;2022-07-30T01:55:24;20.00;96.70
27413;DHT22;14871;52.702;5.230;2022-07-30T01:57:53;20.00;96.70
27413;DHT22;14871;52.702;5.230;2022-07-30T02:00:21;20.10;96.70
27413;DHT22;14871;52.702;5.230;2022-07-30T02:02:48;20.00;96.80
27413;DHT22;14871;52.702;5.230;2022-07-30T02:05:14;20.00;96.90
27413;DHT22;14871;52.702;5.230;2022-07-30T02:07:55;19.90;97.10
27413;DHT22;14871;52.702;5.230;2022-07-30T02:13:06;19.90;97.10
27413;DHT22;14871;52.702;5.230;2022-07-30T02:15:48;19.80;97.40
27413;DHT22;14871;52.702;5.230;2022-07-30T02:18:30;19.90;97.30
27413;DHT22;14871;52.702;5.230;2022-07-30T02:21:02;19.80;97.50
27413;DHT22;14871;52.702;5.230;2022-07-30T02:23:30;19.90;97.20
27413;DHT22;14871;52.702;5.230;2022-07-30T02:26:00;19.70;97.70
27413;DHT22;14871;52.702;5.230;2022-07-30T02:28:26;19.80;97.60
27413;DHT22;14871;52.702;5.230;2022-07-30T02:30:58;19.80;97.40
27413;DHT22;14871;52.702;5.230;2022-07-30T02:33:37;19.70;97.60
27413;DHT22;14871;52.702;5.230;2022-07-30T02:36:06;19.60;97.80
27413;DHT22;14871;52.702;5.230;2022-07-30T02:38:35;19.60;97.80
27413;DHT22;14871;52.702;5.230;2022-07-30T02:41:01;19.50;98.00
27413;DHT22;14871;52.702;5.230;2022-07-30T02:43:30;19.40;98.30
27413;DHT22;14871;52.702;5.230;2022-07-30T02:45:58;19.40;98.20
27413;DHT22;14871;52.702;5.230;2022-07-30T02:48:26;19.40;98.30
27413;DHT22;14871;52.702;5.230;2022-07-30T02:50:53;19.40;98.30
27413;DHT22;14871;52.702;5.230;2022-07-30T02:53:21;19.30;98.40
27413;DHT22;14871;52.702;5.230;2022-07-30T02:55:48;19.30;98.50
27413;DHT22;14871;52.702;5.230;2022-07-30T02:58:22;19.30;98.40
27413;DHT22;14871;52.702;5.230;2022-07-30T03:00:51;19.30;98.80
27413;DHT22;14871;52.702;5.230;2022-07-30T03:03:18;19.40;98.30
27413;DHT22;14871;52.702;5.230;2022-07-30T03:05:45;19.30;98.30
27413;DHT22;14871;52.702;5.230;2022-07-30T03:08:15;19.40;98.20
27413;DHT22;14871;52.702;5.230;2022-07-30T03:10:41;19.20;98.40
27413;DHT22;14871;52.702;5.230;2022-07-30T03:13:09;19.10;98.50
27413;DHT22;14871;52.702;5.230;2022-07-30T03:15:37;19.10;98.60
27413;DHT22;14871;52.702;5.230;2022-07-30T03:18:08;19.10;98.50
27413;DHT22;14871;52.702;5.230;2022-07-30T03:20:36;19.10;98.50
27413;DHT22;14871;52.702;5.230;2022-07-30T03:23:03;19.00;98.70
27413;DHT22;14871;52.702;5.230;2022-07-30T03:25:30;19.00;98.70
27413;DHT22;14871;52.702;5.230;2022-07-30T03:27:58;19.00;98.70
27413;DHT22;14871;52.702;5.230;2022-07-30T03:30:25;18.90;98.80
27413;DHT22;14871;52.702;5.230;2022-07-30T03:32:53;18.90;98.80
27413;DHT22;14871;52.702;5.230;2022-07-30T03:35:20;18.80;98.90
27413;DHT22;14871;52.702;5.230;2022-07-30T03:37:47;18.90;99.00
27413;DHT22;14871;52.702;5.230;2022-07-30T03:40:13;18.80;99.00
27413;DHT22;14871;52.702;5.230;2022-07-30T03:42:39;18.80;98.90
27413;DHT22;14871;52.702;5.230;2022-07-30T03:45:06;18.80;98.90
27413;DHT22;14871;52.702;5.230;2022-07-30T03:47:35;18.70;99.00
27413;DHT22;14871;52.702;5.230;2022-07-30T03:50:01;18.80;98.80
27413;DHT22;14871;52.702;5.230;2022-07-30T03:52:28;18.70;98.90
27413;DHT22;14871;52.702;5.230;2022-07-30T03:54:54;18.80;98.90
27413;DHT22;14871;52.702;5.230;2022-07-30T03:57:19;18.70;99.00
27413;DHT22;14871;52.702;5.230;2022-07-30T03:59:45;18.70;99.00
27413;DHT22;14871;52.702;5.230;2022-07-30T04:02:12;18.70;98.90
27413;DHT22;14871;52.702;5.230;2022-07-30T04:04:43;18.70;99.00
27413;DHT22;14871;52.702;5.230;2022-07-30T04:07:09;18.80;98.90
27413;DHT22;14871;52.702;5.230;2022-07-30T04:09:35;18.80;98.90
27413;DHT22;14871;52.702;5.230;2022-07-30T04:12:00;18.80;98.90
27413;DHT22;14871;52.702;5.230;2022-07-30T04:14:32;18.70;98.90
27413;DHT22;14871;52.702;5.230;2022-07-30T04:17:03;18.70;98.90
27413;DHT22;14871;52.702;5.230;2022-07-30T04:19:35;18.80;98.90
27413;DHT22;14871;52.702;5.230;2022-07-30T04:22:03;18.80;98.80
27413;DHT22;14871;52.702;5.230;2022-07-30T04:24:30;18.80;98.80
27413;DHT22;14871;52.702;5.230;2022-07-30T04:26:58;18.80;98.90
27413;DHT22;14871;52.702;5.230;2022-07-30T04:29:24;18.70;99.00
27413;DHT22;14871;52.702;5.230;2022-07-30T04:31:52;18.70;99.10
27413;DHT22;14871;52.702;5.230;2022-07-30T04:34:18;18.70;99.10
27413;DHT22;14871;52.702;5.230;2022-07-30T04:36:44;18.60;99.40
27413;DHT22;14871;52.702;5.230;2022-07-30T04:39:10;18.70;99.20
27413;DHT22;14871;52.702;5.230;2022-07-30T04:41:36;18.70;99.20
27413;DHT22;14871;52.702;5.230;2022-07-30T04:44:02;18.70;99.40
27413;DHT22;14871;52.702;5.230;2022-07-30T04:46:27;18.70;99.50
27413;DHT22;14871;52.702;5.230;2022-07-30T04:48:53;18.70;99.50
27413;DHT22;14871;52.702;5.230;2022-07-30T04:51:22;18.60;99.70
27413;DHT22;14871;52.702;5.230;2022-07-30T04:53:50;18.60;99.70
27413;DHT22;14871;52.702;5.230;2022-07-30T04:56:18;18.60;99.70
27413;DHT22;14871;52.702;5.230;2022-07-30T04:58:44;18.60;99.60
27413;DHT22;14871;52.702;5.230;2022-07-30T05:01:11;18.60;99.70
27413;DHT22;14871;52.702;5.230;2022-07-30T05:03:39;18.70;99.70
27413;DHT22;14871;52.702;5.230;2022-07-30T05:06:05;18.60;99.90
27413;DHT22;14871;52.702;5.230;2022-07-30T05:08:31;18.70;99.80
27413;DHT22;14871;52.702;5.230;2022-07-30T05:10:57;18.70;99.80
27413;DHT22;14871;52.702;5.230;2022-07-30T05:13:23;18.70;99.90
27413;DHT22;14871;52.702;5.230;2022-07-30T05:15:49;18.70;99.90
27413;DHT22;14871;52.702;5.230;2022-07-30T05:18:14;18.70;99.90
27413;DHT22;14871;52.702;5.230;2022-07-30T05:20:40;18.70;99.90
27413;DHT22;14871;52.702;5.230;2022-07-30T05:23:06;18.70;99.90
27413;DHT22;14871;52.702;5.230;2022-07-30T05:25:31;18.70;99.90
27413;DHT22;14871;52.702;5.230;2022-07-30T05:27:57;18.70;99.90
27413;DHT22;14871;52.702;5.230;2022-07-30T05:30:23;18.70;99.90
27413;DHT22;14871;52.702;5.230;2022-07-30T05:32:49;18.80;99.90
27413;DHT22;14871;52.702;5.230;2022-07-30T05:35:15;18.80;99.90
27413;DHT22;14871;52.702;5.230;2022-07-30T05:37:41;18.80;99.90
27413;DHT22;14871;52.702;5.230;2022-07-30T05:40:07;18.90;99.90
27413;DHT22;14871;52.702;5.230;2022-07-30T05:42:32;18.90;99.90
27413;DHT22;14871;52.702;5.230;2022-07-30T05:44:58;19.00;99.90
27413;DHT22;14871;52.702;5.230;2022-07-30T05:47:25;19.10;99.90
27413;DHT22;14871;52.702;5.230;2022-07-30T05:49:51;19.10;99.90
27413;DHT22;14871;52.702;5.230;2022-07-30T05:52:16;19.20;99.90
27413;DHT22;14871;52.702;5.230;2022-07-30T05:54:42;19.10;99.90
27413;DHT22;14871;52.702;5.230;2022-07-30T05:57:08;19.20;99.90
27413;DHT22;14871;52.702;5.230;2022-07-30T05:59:34;19.30;99.90
27413;DHT22;14871;52.702;5.230;2022-07-30T06:02:00;19.20;99.90
27413;DHT22;14871;52.702;5.230;2022-07-30T06:04:27;19.20;99.90
27413;DHT22;14871;52.702;5.230;2022-07-30T06:06:53;19.20;99.90
27413;DHT22;14871;52.702;5.230;2022-07-30T06:09:19;19.20;99.90
27413;DHT22;14871;52.702;5.230;2022-07-30T06:11:44;19.30;99.90
27413;DHT22;14871;52.702;5.230;2022-07-30T06:14:10;19.30;99.90
27413;DHT22;14871;52.702;5.230;2022-07-30T06:16:36;19.40;99.90
27413;DHT22;14871;52.702;5.230;2022-07-30T06:19:01;19.40;99.90
27413;DHT22;14871;52.702;5.230;2022-07-30T06:21:27;19.30;99.90
27413;DHT22;14871;52.702;5.230;2022-07-30T06:23:52;19.40;99.90
27413;DHT22;14871;52.702;5.230;2022-07-30T06:26:18;19.60;99.90
27413;DHT22;14871;52.702;5.230;2022-07-30T06:28:43;19.70;99.90
27413;DHT22;14871;52.702;5.230;2022-07-30T06:31:09;19.70;99.90
27413;DHT22;14871;52.702;5.230;2022-07-30T06:33:35;19.80;99.90
27413;DHT22;14871;52.702;5.230;2022-07-30T06:36:00;19.90;99.70
27413;DHT22;14871;52.702;5.230;2022-07-30T06:38:26;19.90;99.60
27413;DHT22;14871;52.702;5.230;2022-07-30T06:40:51;20.00;99.30
27413;DHT22;14871;52.702;5.230;2022-07-30T06:43:17;20.20;99.30
27413;DHT22;14871;52.702;5.230;2022-07-30T06:45:44;20.20;99.30
27413;DHT22;14871;52.702;5.230;2022-07-30T06:48:10;20.30;99.00
27413;DHT22;14871;52.702;5.230;2022-07-30T06:50:35;20.40;98.70
27413;DHT22;14871;52.702;5.230;2022-07-30T06:53:01;20.40;98.70
27413;DHT22;14871;52.702;5.230;2022-07-30T06:55:27;20.30;99.00
27413;DHT22;14871;52.702;5.230;2022-07-30T06:57:52;20.30;98.50
27413;DHT22;14871;52.702;5.230;2022-07-30T07:00:18;20.40;98.50
27413;DHT22;14871;52.702;5.230;2022-07-30T07:02:45;20.40;98.50
27413;DHT22;14871;52.702;5.230;2022-07-30T07:05:11;20.50;98.00
27413;DHT22;14871;52.702;5.230;2022-07-30T07:07:36;20.60;97.40
27413;DHT22;14871;52.702;5.230;2022-07-30T07:10:02;20.60;96.90
27413;DHT22;14871;52.702;5.230;2022-07-30T07:12:28;20.50;96.80
27413;DHT22;14871;52.702;5.230;2022-07-30T07:14:54;20.70;96.60
27413;DHT22;14871;52.702;5.230;2022-07-30T07:17:19;20.90;96.60
27413;DHT22;14871;52.702;5.230;2022-07-30T07:19:45;21.00;96.20
27413;DHT22;14871;52.702;5.230;2022-07-30T07:22:11;21.10;95.80
27413;DHT22;14871;52.702;5.230;2022-07-30T07:24:36;21.20;95.40
27413;DHT22;14871;52.702;5.230;2022-07-30T07:27:02;21.20;94.90
27413;DHT22;14871;52.702;5.230;2022-07-30T07:29:28;21.30;95.00
27413;DHT22;14871;52.702;5.230;2022-07-30T07:31:53;21.30;94.80
27413;DHT22;14871;52.702;5.230;2022-07-30T07:34:19;21.40;94.50
27413;DHT22;14871;52.702;5.230;2022-07-30T07:36:44;21.50;94.40
27413;DHT22;14871;52.702;5.230;2022-07-30T07:39:10;21.50;94.30
27413;DHT22;14871;52.702;5.230;2022-07-30T07:41:36;21.60;94.10
27413;DHT22;14871;52.702;5.230;2022-07-30T07:44:03;21.80;93.90
27413;DHT22;14871;52.702;5.230;2022-07-30T07:46:29;21.90;93.80
27413;DHT22;14871;52.702;5.230;2022-07-30T07:48:54;22.00;93.60
27413;DHT22;14871;52.702;5.230;2022-07-30T07:51:20;22.00;93.30
27413;DHT22;14871;52.702;5.230;2022-07-30T07:53:46;21.80;93.30
27413;DHT22;14871;52.702;5.230;2022-07-30T07:56:11;21.80;93.10
27413;DHT22;14871;52.702;5.230;2022-07-30T07:58:38;21.90;93.00
27413;DHT22;14871;52.702;5.230;2022-07-30T08:01:04;22.10;92.90
27413;DHT22;14871;52.702;5.230;2022-07-30T08:03:29;22.40;92.80
27413;DHT22;14871;52.702;5.230;2022-07-30T08:05:55;22.50;92.00
27413;DHT22;14871;52.702;5.230;2022-07-30T08:08:21;22.70;91.90
27413;DHT22;14871;52.702;5.230;2022-07-30T08:10:46;22.80;91.30
27413;DHT22;14871;52.702;5.230;2022-07-30T08:13:12;22.90;90.80
27413;DHT22;14871;52.702;5.230;2022-07-30T08:15:39;22.90;90.60
27413;DHT22;14871;52.702;5.230;2022-07-30T08:18:04;23.10;90.30
27413;DHT22;14871;52.702;5.230;2022-07-30T08:20:32;23.20;89.90
27413;DHT22;14871;52.702;5.230;2022-07-30T08:22:58;23.20;89.70
27413;DHT22;14871;52.702;5.230;2022-07-30T08:25:23;23.10;89.70
27413;DHT22;14871;52.702;5.230;2022-07-30T08:27:49;23.30;90.00
27413;DHT22;14871;52.702;5.230;2022-07-30T08:30:14;23.30;89.00
27413;DHT22;14871;52.702;5.230;2022-07-30T08:32:40;23.30;89.20
27413;DHT22;14871;52.702;5.230;2022-07-30T08:35:06;23.50;88.80
27413;DHT22;14871;52.702;5.230;2022-07-30T08:37:32;23.60;89.20
27413;DHT22;14871;52.702;5.230;2022-07-30T08:39:57;23.70;88.50
27413;DHT22;14871;52.702;5.230;2022-07-30T08:42:23;23.80;87.30
27413;DHT22;14871;52.702;5.230;2022-07-30T08:44:52;23.70;87.20
27413;DHT22;14871;52.702;5.230;2022-07-30T08:47:18;23.70;86.90
27413;DHT22;14871;52.702;5.230;2022-07-30T08:49:45;23.80;86.90
27413;DHT22;14871;52.702;5.230;2022-07-30T08:52:12;24.00;87.00
27413;DHT22;14871;52.702;5.230;2022-07-30T08:54:38;24.10;85.90
27413;DHT22;14871;52.702;5.230;2022-07-30T08:57:05;24.20;86.50
27413;DHT22;14871;52.702;5.230;2022-07-30T08:59:31;24.10;84.80
27413;DHT22;14871;52.702;5.230;2022-07-30T09:01:57;24.20;83.10
27413;DHT22;14871;52.702;5.230;2022-07-30T09:04:23;24.30;82.40
27413;DHT22;14871;52.702;5.230;2022-07-30T09:06:48;24.30;82.80
27413;DHT22;14871;52.702;5.230;2022-07-30T09:09:14;24.50;82.50
27413;DHT22;14871;52.702;5.230;2022-07-30T09:11:40;24.70;82.10
27413;DHT22;14871;52.702;5.230;2022-07-30T09:14:13;24.70;80.80
27413;DHT22;14871;52.702;5.230;2022-07-30T09:16:40;24.90;79.50
27413;DHT22;14871;52.702;5.230;2022-07-30T09:19:18;25.10;79.30
27413;DHT22;14871;52.702;5.230;2022-07-30T09:21:55;25.10;79.10
27413;DHT22;14871;52.702;5.230;2022-07-30T09:24:21;25.10;77.90
27413;DHT22;14871;52.702;5.230;2022-07-30T09:26:55;25.30;77.50
27413;DHT22;14871;52.702;5.230;2022-07-30T09:29:26;25.50;77.10
27413;DHT22;14871;52.702;5.230;2022-07-30T09:31:53;25.30;77.40
27413;DHT22;14871;52.702;5.230;2022-07-30T09:34:35;25.20;78.10
27413;DHT22;14871;52.702;5.230;2022-07-30T09:37:03;25.10;78.00
27413;DHT22;14871;52.702;5.230;2022-07-30T09:39:38;25.30;77.90
27413;DHT22;14871;52.702;5.230;2022-07-30T09:42:23;25.50;78.50
27413;DHT22;14871;52.702;5.230;2022-07-30T09:44:50;25.80;76.90
27413;DHT22;14871;52.702;5.230;2022-07-30T09:50:14;25.80;73.10
27413;DHT22;14871;52.702;5.230;2022-07-30T09:52:43;25.90;73.40
27413;DHT22;14871;52.702;5.230;2022-07-30T09:55:10;25.80;72.80
27413;DHT22;14871;52.702;5.230;2022-07-30T09:57:59;25.80;72.60
27413;DHT22;14871;52.702;5.230;2022-07-30T10:00:27;25.90;71.50
27413;DHT22;14871;52.702;5.230;2022-07-30T10:02:53;25.90;71.50
27413;DHT22;14871;52.702;5.230;2022-07-30T10:05:20;26.10;70.40
27413;DHT22;14871;52.702;5.230;2022-07-30T10:07:55;26.20;68.80
27413;DHT22;14871;52.702;5.230;2022-07-30T10:10:23;26.30;67.30
27413;DHT22;14871;52.702;5.230;2022-07-30T10:12:51;26.40;67.90
27413;DHT22;14871;52.702;5.230;2022-07-30T10:15:23;26.40;68.20
27413;DHT22;14871;52.702;5.230;2022-07-30T10:17:49;26.60;69.50
27413;DHT22;14871;52.702;5.230;2022-07-30T10:20:16;26.80;68.40
27413;DHT22;14871;52.702;5.230;2022-07-30T10:22:42;26.90;68.10
27413;DHT22;14871;52.702;5.230;2022-07-30T10:25:09;26.90;67.00
27413;DHT22;14871;52.702;5.230;2022-07-30T10:27:35;26.90;65.40
27413;DHT22;14871;52.702;5.230;2022-07-30T10:30:01;27.10;64.70
27413;DHT22;14871;52.702;5.230;2022-07-30T10:32:28;27.20;63.70
27413;DHT22;14871;52.702;5.230;2022-07-30T10:34:53;27.20;65.70
27413;DHT22;14871;52.702;5.230;2022-07-30T10:37:20;27.30;65.40
27413;DHT22;14871;52.702;5.230;2022-07-30T10:40:03;27.30;63.30
27413;DHT22;14871;52.702;5.230;2022-07-30T10:45:18;27.40;62.40
27413;DHT22;14871;52.702;5.230;2022-07-30T10:47:48;27.30;63.60
27413;DHT22;14871;52.702;5.230;2022-07-30T10:50:17;27.30;63.60
27413;DHT22;14871;52.702;5.230;2022-07-30T10:52:58;27.50;63.90
27413;DHT22;14871;52.702;5.230;2022-07-30T10:55:33;27.60;63.40
27413;DHT22;14871;52.702;5.230;2022-07-30T11:01:14;27.90;61.80
27413;DHT22;14871;52.702;5.230;2022-07-30T11:03:23;28.10;61.80
27413;DHT22;14871;52.702;5.230;2022-07-30T11:08:44;28.10;61.00
27413;DHT22;14871;52.702;5.230;2022-07-30T11:13:57;28.40;60.90
27413;DHT22;14871;52.702;5.230;2022-07-30T11:19:16;28.30;58.40
27413;DHT22;14871;52.702;5.230;2022-07-30T11:21:45;28.20;58.40
27413;DHT22;14871;52.702;5.230;2022-07-30T11:27:06;28.00;58.30
27413;DHT22;14871;52.702;5.230;2022-07-30T11:29:38;28.10;58.10
27413;DHT22;14871;52.702;5.230;2022-07-30T11:32:24;28.20;57.00
27413;DHT22;14871;52.702;5.230;2022-07-30T11:34:51;28.00;57.20
27413;DHT22;14871;52.702;5.230;2022-07-30T11:37:17;28.10;57.30
27413;DHT22;14871;52.702;5.230;2022-07-30T11:44:50;28.00;58.20
27413;DHT22;14871;52.702;5.230;2022-07-30T11:47:15;28.00;57.30
27413;DHT22;14871;52.702;5.230;2022-07-30T11:49:42;28.10;57.90
27413;DHT22;14871;52.702;5.230;2022-07-30T11:52:08;28.30;57.60
27413;DHT22;14871;52.702;5.230;2022-07-30T11:54:52;28.50;58.20
27413;DHT22;14871;52.702;5.230;2022-07-30T11:57:18;28.80;57.10
27413;DHT22;14871;52.702;5.230;2022-07-30T12:00:10;28.60;56.90
27413;DHT22;14871;52.702;5.230;2022-07-30T12:02:36;29.00;56.50
27413;DHT22;14871;52.702;5.230;2022-07-30T12:05:01;29.10;57.20
27413;DHT22;14871;52.702;5.230;2022-07-30T12:07:28;29.10;56.00
27413;DHT22;14871;52.702;5.230;2022-07-30T12:10:11;29.30;55.40
27413;DHT22;14871;52.702;5.230;2022-07-30T12:12:36;29.00;55.90
27413;DHT22;14871;52.702;5.230;2022-07-30T12:15:02;29.10;56.00
27413;DHT22;14871;52.702;5.230;2022-07-30T12:17:42;29.00;55.70
27413;DHT22;14871;52.702;5.230;2022-07-30T12:20:15;29.10;56.40
27413;DHT22;14871;52.702;5.230;2022-07-30T12:22:42;29.20;55.90
27413;DHT22;14871;52.702;5.230;2022-07-30T12:25:08;29.40;56.10
27413;DHT22;14871;52.702;5.230;2022-07-30T12:27:35;29.70;53.70
27413;DHT22;14871;52.702;5.230;2022-07-30T12:30:01;29.40;55.60
27413;DHT22;14871;52.702;5.230;2022-07-30T12:32:27;29.40;56.80
27413;DHT22;14871;52.702;5.230;2022-07-30T12:34:56;29.50;55.70
27413;DHT22;14871;52.702;5.230;2022-07-30T12:37:22;29.50;56.30
27413;DHT22;14871;52.702;5.230;2022-07-30T12:39:47;29.60;56.10
27413;DHT22;14871;52.702;5.230;2022-07-30T12:42:19;29.60;55.90
27413;DHT22;14871;52.702;5.230;2022-07-30T12:44:45;29.60;55.50
27413;DHT22;14871;52.702;5.230;2022-07-30T12:47:24;29.50;55.80
27413;DHT22;14871;52.702;5.230;2022-07-30T12:49:52;29.70;56.60
27413;DHT22;14871;52.702;5.230;2022-07-30T12:52:22;29.60;56.50
27413;DHT22;14871;52.702;5.230;2022-07-30T12:57:27;29.60;57.20
27413;DHT22;14871;52.702;5.230;2022-07-30T13:00:04;29.50;56.80
27413;DHT22;14871;52.702;5.230;2022-07-30T13:02:34;29.50;57.90
27413;DHT22;14871;52.702;5.230;2022-07-30T13:05:01;29.30;57.60
27413;DHT22;14871;52.702;5.230;2022-07-30T13:07:27;29.00;58.10
27413;DHT22;14871;52.702;5.230;2022-07-30T13:10:07;28.90;58.30
27413;DHT22;14871;52.702;5.230;2022-07-30T13:12:33;28.80;58.00
27413;DHT22;14871;52.702;5.230;2022-07-30T13:14:59;28.50;58.40
27413;DHT22;14871;52.702;5.230;2022-07-30T13:17:24;28.40;59.30
27413;DHT22;14871;52.702;5.230;2022-07-30T13:19:50;28.20;60.80
27413;DHT22;14871;52.702;5.230;2022-07-30T13:22:15;28.40;60.60
27413;DHT22;14871;52.702;5.230;2022-07-30T13:24:41;28.40;61.00
27413;DHT22;14871;52.702;5.230;2022-07-30T13:27:06;28.80;59.80
27413;DHT22;14871;52.702;5.230;2022-07-30T13:29:33;29.10;59.90
27413;DHT22;14871;52.702;5.230;2022-07-30T13:31:58;29.30;58.70
27413;DHT22;14871;52.702;5.230;2022-07-30T13:34:24;29.50;58.20
27413;DHT22;14871;52.702;5.230;2022-07-30T13:36:50;29.20;59.30
27413;DHT22;14871;52.702;5.230;2022-07-30T13:39:15;29.20;58.60
27413;DHT22;14871;52.702;5.230;2022-07-30T13:41:41;28.80;59.30
27413;DHT22;14871;52.702;5.230;2022-07-30T13:44:07;28.50;59.60
27413;DHT22;14871;52.702;5.230;2022-07-30T13:46:32;28.50;60.00
27413;DHT22;14871;52.702;5.230;2022-07-30T13:48:58;28.30;60.40
27413;DHT22;14871;52.702;5.230;2022-07-30T13:51:24;27.90;61.70
27413;DHT22;14871;52.702;5.230;2022-07-30T13:53:50;28.00;62.80
27413;DHT22;14871;52.702;5.230;2022-07-30T13:56:15;28.00;65.20
27413;DHT22;14871;52.702;5.230;2022-07-30T13:58:41;27.80;66.10
27413;DHT22;14871;52.702;5.230;2022-07-30T14:01:07;27.60;68.00
27413;DHT22;14871;52.702;5.230;2022-07-30T14:03:33;27.30;68.20
27413;DHT22;14871;52.702;5.230;2022-07-30T14:05:59;27.20;68.40
27413;DHT22;14871;52.702;5.230;2022-07-30T14:08:25;27.30;67.90
27413;DHT22;14871;52.702;5.230;2022-07-30T14:10:53;27.10;69.30
27413;DHT22;14871;52.702;5.230;2022-07-30T14:13:19;27.20;68.60
27413;DHT22;14871;52.702;5.230;2022-07-30T14:15:44;27.20;68.00
27413;DHT22;14871;52.702;5.230;2022-07-30T14:18:10;27.50;67.50
27413;DHT22;14871;52.702;5.230;2022-07-30T14:20:36;27.80;65.20
27413;DHT22;14871;52.702;5.230;2022-07-30T14:23:01;27.80;64.70
27413;DHT22;14871;52.702;5.230;2022-07-30T14:25:27;27.70;64.90
27413;DHT22;14871;52.702;5.230;2022-07-30T14:27:53;27.40;64.30
27413;DHT22;14871;52.702;5.230;2022-07-30T14:30:20;27.60;64.10
27413;DHT22;14871;52.702;5.230;2022-07-30T14:32:48;27.80;63.80
27413;DHT22;14871;52.702;5.230;2022-07-30T14:35:13;27.90;64.00
27413;DHT22;14871;52.702;5.230;2022-07-30T14:37:39;28.00;65.00
27413;DHT22;14871;52.702;5.230;2022-07-30T14:40:06;28.10;64.50
27413;DHT22;14871;52.702;5.230;2022-07-30T14:42:32;28.40;63.00
27413;DHT22;14871;52.702;5.230;2022-07-30T14:44:57;28.40;62.60
27413;DHT22;14871;52.702;5.230;2022-07-30T14:47:23;28.10;63.60
27413;DHT22;14871;52.702;5.230;2022-07-30T14:49:48;28.00;63.40
27413;DHT22;14871;52.702;5.230;2022-07-30T14:52:14;28.00;63.50
27413;DHT22;14871;52.702;5.230;2022-07-30T14:54:41;28.10;62.70
27413;DHT22;14871;52.702;5.230;2022-07-30T14:57:06;28.20;61.90
27413;DHT22;14871;52.702;5.230;2022-07-30T14:59:34;28.20;60.80
27413;DHT22;14871;52.702;5.230;2022-07-30T15:02:00;28.10;61.80
27413;DHT22;14871;52.702;5.230;2022-07-30T15:04:26;28.20;60.60
27413;DHT22;14871;52.702;5.230;2022-07-30T15:06:51;28.10;61.50
27413;DHT22;14871;52.702;5.230;2022-07-30T15:09:17;28.30;60.00
27413;DHT22;14871;52.702;5.230;2022-07-30T15:11:44;28.30;59.10
27413;DHT22;14871;52.702;5.230;2022-07-30T15:14:09;28.40;58.90
27413;DHT22;14871;52.702;5.230;2022-07-30T15:16:36;28.10;59.60
27413;DHT22;14871;52.702;5.230;2022-07-30T15:19:02;27.90;59.30
27413;DHT22;14871;52.702;5.230;2022-07-30T15:21:28;27.80;59.40
27413;DHT22;14871;52.702;5.230;2022-07-30T15:23:54;27.80;59.70
27413;DHT22;14871;52.702;5.230;2022-07-30T15:26:19;27.70;59.50
27413;DHT22;14871;52.702;5.230;2022-07-30T15:28:45;27.60;59.80
27413;DHT22;14871;52.702;5.230;2022-07-30T15:31:11;27.50;60.20
27413;DHT22;14871;52.702;5.230;2022-07-30T15:33:36;27.30;61.20
27413;DHT22;14871;52.702;5.230;2022-07-30T15:36:07;27.50;60.40
27413;DHT22;14871;52.702;5.230;2022-07-30T15:38:33;27.30;61.50
27413;DHT22;14871;52.702;5.230;2022-07-30T15:40:58;27.30;62.10
27413;DHT22;14871;52.702;5.230;2022-07-30T15:43:24;27.40;61.00
27413;DHT22;14871;52.702;5.230;2022-07-30T15:45:50;27.60;60.80
27413;DHT22;14871;52.702;5.230;2022-07-30T15:48:15;27.50;61.80
27413;DHT22;14871;52.702;5.230;2022-07-30T15:50:41;27.50;61.40
27413;DHT22;14871;52.702;5.230;2022-07-30T15:53:09;27.30;62.50
27413;DHT22;14871;52.702;5.230;2022-07-30T15:55:35;27.30;62.70
27413;DHT22;14871;52.702;5.230;2022-07-30T15:58:01;27.40;63.00
27413;DHT22;14871;52.702;5.230;2022-07-30T16:00:26;27.60;61.00
27413;DHT22;14871;52.702;5.230;2022-07-30T16:02:52;27.50;61.00
27413;DHT22;14871;52.702;5.230;2022-07-30T16:05:20;27.40;61.50
27413;DHT22;14871;52.702;5.230;2022-07-30T16:07:46;27.30;62.60